Detalii statie AGRONOVA [00001CEC]

Toti senzorii

Date Temperatura solului [C]Precipitatii [mm]Voltaj baterie [mV]Leaf Wetness [Min]HC Air temperature [C]HC Relative humidity [%]Punctul de roua [C]
medieminmaxsumaultimatimpmedieminmaxmediemediemin
2019-02-21 00:00:00 5 4.8 5.2 0 6590 5.22 4.18 5.74 0 0 0
2019-02-21 01:00:00 4.8 4.7 5 0 6582 3.28 1.95 4.26 0 0 0
2019-02-21 02:00:00 4.6 4.5 4.8 0 6572 1.71 1.22 2.25 0 0 0
2019-02-21 03:00:00 4.4 4.3 4.6 0 6562 0.77 0.07 2.08 0 0 0
2019-02-21 04:00:00 4.1 4 4.3 0 6552 0.06 -0.4 0.73 0 0 0
2019-02-21 05:00:00 4 3.8 4.2 0 6552 -0.17 -0.75 0.91 0 0 0
2019-02-21 06:00:00 3.8 3.7 4 0 6532 -1.46 -2.32 -0.44 0 0 0
2019-02-21 07:00:00 3.5 3.4 3.7 0 6542 -2.64 -2.99 -2.15 0 0 0
2019-02-21 08:00:00 3.4 3.2 3.5 0 6582 -2.38 -3.04 -1.01 0 0 0
2019-02-21 09:00:00 3.2 3.1 3.4 0 6952 1.5 -0.73 3.82 0 0 0
2019-02-21 10:00:00 3.2 3.1 3.4 0 7254 5.66 4.03 7.32 0 0 0
2019-02-21 11:00:00 3.5 3.2 3.9 0 7264 8.42 7.49 9.38 0 0 0
2019-02-21 12:00:00 4.1 3.8 4.5 0 7264 10.68 9.5 11.75 0 0 0
2019-02-21 13:00:00 4.9 4.5 5.3 0 7254 12.53 11.83 13.21 0 0 0
2019-02-21 14:00:00 5.6 5.2 6 0 7264 13.46 12.76 13.78 0 0 0
2019-02-21 15:00:00 6.3 6.2 6.6 0 7264 13.84 13.65 14.21 0 0 0
2019-02-21 16:00:00 6.7 6.6 7 0 7264 13.57 12.79 13.93 0 0 0
2019-02-21 17:00:00 6.7 6.7 6.9 0 7246 12.74 11.99 13.42 0 0 0
2019-02-21 18:00:00 6.6 6.4 6.8 0 6952 9.69 7.28 11.74 0 0 0
2019-02-21 19:00:00 6.3 6.1 6.6 0 6786 5.1 4.39 6.93 0 0 0
2019-02-21 20:00:00 5.9 5.8 6.2 0 6660 3.85 3.67 4.24 0 0 0
2019-02-21 21:00:00 5.6 5.5 5.9 0 6610 3.39 2.17 5.16 0 0 0
2019-02-21 22:00:00 5.3 5.1 5.5 0 6600 1.17 0.72 1.96 0 0 0
2019-02-21 23:00:00 4.9 4.9 5.1 0 6590 0.97 0.34 2.13 0 0 0
2019-02-22 00:00:00 4.6 4.5 4.8 0 6582 0.32 -0.32 1.27 0 0 0
2019-02-22 01:00:00 4.4 4.3 4.6 0 6572 -0.1 -0.42 0.2 0 0 0
2019-02-22 02:00:00 4.1 4 4.3 0 6572 -0.17 -0.73 0.43 0 0 0
2019-02-22 03:00:00 3.9 3.8 4.1 0 6562 -0.05 -0.46 0.77 0 0 0
2019-02-22 04:00:00 3.7 3.5 3.8 0 6552 -0.07 -0.46 0.32 0 0 0
2019-02-22 05:00:00 3.5 3.4 3.7 0 6542 -0.86 -1.65 -0.52 0 0 0
2019-02-22 06:00:00 3.4 3.3 3.6 0 6542 -1.83 -2.2 -1.47 0 0 0
2019-02-22 07:00:00 3.2 3.1 3.4 0 6522 -2.64 -3.14 -2.27 0 0 0
2019-02-22 08:00:00 3.1 2.9 3.2 0 6572 -1.81 -2.9 -0.35 0 0 0
2019-02-22 09:00:00 3 2.8 3.1 0 6748 1.76 -0.1 3.79 0 0 0
2019-02-22 10:00:00 3.1 3 3.3 0 6894 5.23 3.88 6.28 0 0 0
2019-02-22 11:00:00 3.4 3.2 3.6 0.2 6834 6.24 6.11 6.37 0 0 0
2019-02-22 12:00:00 3.8 3.6 4 1 6796 6.59 6.37 6.7 0 0 0
2019-02-22 13:00:00 4 3.8 4.1 1.4 6728 6.57 6.34 6.64 0 0 0
2019-02-22 14:00:00 4.2 4.1 4.3 1.2 6806 6.59 6.28 7.28 0 0 0
2019-02-22 15:00:00 4.4 4.2 4.6 0.2 6796 7.27 7.11 7.54 0 0 0
2019-02-22 16:00:00 4.6 4.5 4.8 0.2 6874 7.97 7.74 8.11 0 0 0
2019-02-22 17:00:00 4.8 4.8 5 0 6786 8.08 7.99 8.15 0 0 0
2019-02-22 18:00:00 5 4.9 5.1 0 6650 7.9 7.8 8.08 0 0 0
2019-02-22 19:00:00 5 5 5.2 0 6610 5.76 5.41 6.77 0 0 0
2019-02-22 20:00:00 5 4.9 5.1 0.4 6582 3.13 0.06 5.35 0 0 0
2019-02-22 21:00:00 4.8 4.6 5 0 6552 -0.15 -0.36 0 0 0 0
2019-02-22 22:00:00 4.5 4.4 4.6 0 6542 -0.73 -1.11 -0.37 0 0 0
2019-02-22 23:00:00 4.2 4.1 4.4 0 6532 -1.72 -2.02 -1.15 0 0 0